createdAt,value
2023-04-03T00:01:28.143Z,11.30
2023-04-03T00:03:56.695Z,9.87
2023-04-03T00:06:27.312Z,10.93
2023-04-03T00:08:55.953Z,8.47
2023-04-03T00:11:24.410Z,11.60
2023-04-03T00:13:53.299Z,9.83
2023-04-03T00:16:21.813Z,8.97
2023-04-03T00:18:50.346Z,12.83
2023-04-03T00:21:18.836Z,11.53
2023-04-03T00:23:48.792Z,14.77
2023-04-03T00:26:17.317Z,10.83
2023-04-03T00:28:46.051Z,11.27
2023-04-03T00:31:17.401Z,10.17
2023-04-03T00:33:46.020Z,10.67
2023-04-03T00:36:15.682Z,10.17
2023-04-03T00:38:44.469Z,8.77
2023-04-03T00:41:14.396Z,8.13
2023-04-03T00:43:42.999Z,11.00
2023-04-03T00:46:11.909Z,11.07
2023-04-03T00:48:43.827Z,9.47
2023-04-03T00:51:16.102Z,9.07
2023-04-03T00:53:49.196Z,8.90
2023-04-03T00:56:22.876Z,9.13
2023-04-03T00:58:57.442Z,13.43
2023-04-03T01:01:29.348Z,7.63
2023-04-03T01:03:58.057Z,10.97
2023-04-03T01:06:32.295Z,11.87
2023-04-03T01:09:08.035Z,7.97
2023-04-03T01:11:38.039Z,9.70
2023-04-03T01:14:07.583Z,7.73
2023-04-03T01:16:36.677Z,11.33
2023-04-03T01:19:07.016Z,10.63
2023-04-03T01:22:14.575Z,10.10
2023-04-03T01:24:43.120Z,7.67
2023-04-03T01:27:14.743Z,9.70
2023-04-03T01:30:08.999Z,8.13
2023-04-03T01:32:39.845Z,11.57
2023-04-03T01:35:10.819Z,7.57
2023-04-03T01:37:40.156Z,7.47
2023-04-03T01:40:10.343Z,6.43
2023-04-03T01:42:38.968Z,10.57
2023-04-03T01:45:08.380Z,10.40
2023-04-03T01:47:37.111Z,14.53
2023-04-03T01:50:07.916Z,10.10
2023-04-03T01:52:37.065Z,8.67
2023-04-03T01:55:06.015Z,12.03
2023-04-03T01:57:34.742Z,10.73
2023-04-03T02:00:03.830Z,11.93
2023-04-03T02:02:41.841Z,9.83
2023-04-03T02:05:12.250Z,8.17
2023-04-03T02:07:41.791Z,7.07
2023-04-03T02:10:11.085Z,10.67
2023-04-03T02:12:39.762Z,7.73
2023-04-03T02:15:09.364Z,10.93
2023-04-03T02:17:38.305Z,10.50
2023-04-03T02:20:07.925Z,8.73
2023-04-03T02:22:38.051Z,7.80
2023-04-03T02:25:07.283Z,12.73
2023-04-03T02:27:36.367Z,9.20
2023-04-03T02:30:05.540Z,9.53
2023-04-03T02:32:34.184Z,11.20
2023-04-03T02:35:03.519Z,9.10
2023-04-03T02:37:32.512Z,8.07
2023-04-03T02:40:02.795Z,8.33
2023-04-03T02:42:31.384Z,8.13
2023-04-03T02:45:01.499Z,15.13
2023-04-03T02:47:30.243Z,10.33
2023-04-03T02:49:58.790Z,10.93
2023-04-03T02:52:27.418Z,7.30
2023-04-03T02:55:01.120Z,11.87
2023-04-03T02:57:29.991Z,10.73
2023-04-03T02:59:58.650Z,10.13
2023-04-03T03:02:27.352Z,5.50
2023-04-03T03:04:55.984Z,11.27
2023-04-03T03:07:27.120Z,8.37
2023-04-03T03:09:55.837Z,6.07
2023-04-03T03:12:25.889Z,8.13
2023-04-03T03:14:54.511Z,7.20
2023-04-03T03:17:23.555Z,10.07
2023-04-03T03:19:52.180Z,8.53
2023-04-03T03:22:21.276Z,9.67
2023-04-03T03:24:49.813Z,8.20
2023-04-03T03:27:18.343Z,8.87
2023-04-03T03:29:48.277Z,11.07
2023-04-03T03:32:16.843Z,9.53
2023-04-03T03:34:45.372Z,8.90
2023-04-03T03:37:13.971Z,10.07
2023-04-03T03:39:42.563Z,8.00
2023-04-03T03:42:11.158Z,8.70
2023-04-03T03:44:39.960Z,10.00
2023-04-03T03:47:11.929Z,9.03
2023-04-03T03:49:41.948Z,6.77
2023-04-03T03:52:11.642Z,8.10
2023-04-03T03:54:40.582Z,7.97
2023-04-03T03:57:09.457Z,8.10
2023-04-03T03:59:38.953Z,10.17
2023-04-03T04:02:07.639Z,9.20
2023-04-03T04:04:37.762Z,8.40
2023-04-03T04:07:07.024Z,8.27
2023-04-03T04:09:36.794Z,13.37
2023-04-03T04:12:05.640Z,7.80
2023-04-03T04:14:34.887Z,8.33
2023-04-03T04:17:04.189Z,8.00
2023-04-03T04:19:34.244Z,6.93
2023-04-03T04:22:04.472Z,6.40
2023-04-03T04:24:34.582Z,7.87
2023-04-03T04:27:04.893Z,9.87
2023-04-03T04:29:36.836Z,7.80
2023-04-03T04:32:07.215Z,8.50
2023-04-03T04:34:36.759Z,10.07
2023-04-03T04:37:06.884Z,6.40
2023-04-03T04:39:35.862Z,9.33
2023-04-03T04:42:04.643Z,6.33
2023-04-03T04:44:35.188Z,13.63
2023-04-03T04:47:04.694Z,9.23
2023-04-03T04:49:33.304Z,6.43
2023-04-03T04:52:03.230Z,10.43
2023-04-03T04:54:35.628Z,5.27
2023-04-03T04:57:05.316Z,10.10
2023-04-03T04:59:35.204Z,7.03
2023-04-03T05:02:04.790Z,8.93
2023-04-03T05:04:34.526Z,4.57
2023-04-03T05:07:09.413Z,5.97
2023-04-03T05:09:43.312Z,4.50
2023-04-03T05:12:14.015Z,4.63
2023-04-03T05:14:49.673Z,4.83
2023-04-03T05:17:19.035Z,3.80
2023-04-03T05:19:52.826Z,4.17
2023-04-03T05:22:23.709Z,4.17
2023-04-03T05:24:56.357Z,3.13
2023-04-03T05:27:26.278Z,4.03
2023-04-03T05:29:57.499Z,4.90
2023-04-03T05:32:28.682Z,5.80
2023-04-03T05:35:12.446Z,3.17
2023-04-03T05:37:42.367Z,15.13
2023-04-03T05:40:16.887Z,5.40
2023-04-03T05:42:49.393Z,2.23
2023-04-03T05:45:19.785Z,3.80
2023-04-03T05:47:48.674Z,3.33
2023-04-03T05:50:17.540Z,3.67
2023-04-03T05:52:50.644Z,9.53
2023-04-03T05:55:21.615Z,5.73
2023-04-03T05:57:51.047Z,1.93
2023-04-03T06:00:20.483Z,1.50
2023-04-03T06:02:57.872Z,3.63
2023-04-03T06:05:28.011Z,9.97
2023-04-03T06:07:58.086Z,10.57
2023-04-03T06:10:28.337Z,4.33
2023-04-03T06:12:56.901Z,3.57
2023-04-03T06:15:25.956Z,6.90
2023-04-03T06:17:54.606Z,2.50
2023-04-03T06:20:23.377Z,3.67
2023-04-03T06:22:52.149Z,2.07
2023-04-03T06:25:20.929Z,2.90
2023-04-03T06:27:50.952Z,1.37
2023-04-03T06:30:19.563Z,3.40
2023-04-03T06:32:48.098Z,6.43
2023-04-03T06:35:17.085Z,8.07
2023-04-03T06:37:45.604Z,4.70
2023-04-03T06:40:23.209Z,4.10
2023-04-03T06:42:53.587Z,3.80
2023-04-03T06:45:22.833Z,4.40
2023-04-03T06:47:51.430Z,5.03
2023-04-03T06:50:20.119Z,1.30
2023-04-03T06:52:48.633Z,2.00
2023-04-03T06:55:17.273Z,3.17
2023-04-03T06:57:45.802Z,3.97
2023-04-03T07:00:17.546Z,4.37
2023-04-03T07:02:46.612Z,1.93
2023-04-03T07:05:15.547Z,3.77
2023-04-03T07:07:44.682Z,1.33
2023-04-03T07:10:13.617Z,4.53
2023-04-03T07:12:42.220Z,3.47
2023-04-03T07:15:12.174Z,6.70
2023-04-03T07:17:42.545Z,2.77
2023-04-03T07:20:12.080Z,3.27
2023-04-03T07:22:40.732Z,5.23
2023-04-03T07:25:10.061Z,3.07
2023-04-03T07:27:38.828Z,2.17
2023-04-03T07:30:08.817Z,3.17
2023-04-03T07:32:37.884Z,4.90
2023-04-03T07:35:08.292Z,2.20
2023-04-03T07:37:36.880Z,1.60
2023-04-03T07:40:06.380Z,1.33
2023-04-03T07:42:35.030Z,3.00
2023-04-03T07:45:04.793Z,3.70
2023-04-03T07:47:33.521Z,3.10
2023-04-03T07:50:02.072Z,3.43
2023-04-03T07:52:31.951Z,1.67
2023-04-03T07:55:00.723Z,1.90
2023-04-03T07:57:29.244Z,1.60
2023-04-03T07:59:57.879Z,3.60
2023-04-03T08:02:26.418Z,2.13
2023-04-03T08:04:55.181Z,3.00
2023-04-03T08:07:23.768Z,2.20
2023-04-03T08:09:53.721Z,1.73
2023-04-03T08:12:22.315Z,1.80
2023-04-03T08:14:50.824Z,2.07
2023-04-03T08:17:19.440Z,6.13
2023-04-03T08:19:47.990Z,2.20
2023-04-03T08:22:17.289Z,4.10
2023-04-03T08:24:52.547Z,2.93
2023-04-03T08:27:29.935Z,12.93
2023-04-03T08:29:58.935Z,2.37
2023-04-03T08:32:28.132Z,8.03
2023-04-03T08:34:56.659Z,4.60
2023-04-03T08:37:25.181Z,5.87
2023-04-03T08:39:54.538Z,2.80
2023-04-03T08:42:39.237Z,2.17
2023-04-03T08:45:13.693Z,5.30
2023-04-03T08:47:49.273Z,4.50
2023-04-03T08:50:20.761Z,5.87
2023-04-03T08:52:54.028Z,3.37
2023-04-03T08:55:26.975Z,1.93
2023-04-03T08:58:03.419Z,1.30
2023-04-03T09:00:40.529Z,5.97
2023-04-03T09:03:15.296Z,1.33
2023-04-03T09:05:49.246Z,1.70
2023-04-03T09:08:27.122Z,3.93
2023-04-03T09:11:09.566Z,2.47
2023-04-03T09:13:51.313Z,5.73
2023-04-03T09:16:30.457Z,1.20
2023-04-03T09:19:10.819Z,1.40
2023-04-03T09:21:43.373Z,1.40
2023-04-03T09:24:14.636Z,4.47
2023-04-03T09:26:47.253Z,1.90
2023-04-03T09:29:21.825Z,2.07
2023-04-03T09:31:52.266Z,1.27
2023-04-03T09:34:25.515Z,3.47
2023-04-03T09:36:55.765Z,4.70
2023-04-03T09:39:26.606Z,2.60
2023-04-03T09:42:02.431Z,1.63
2023-04-03T09:44:38.504Z,3.47
2023-04-03T09:47:21.615Z,2.37
2023-04-03T09:49:50.267Z,4.60
2023-04-03T09:52:25.614Z,1.60
2023-04-03T09:54:55.074Z,3.77
2023-04-03T09:57:23.618Z,1.90
2023-04-03T10:00:02.508Z,3.90
2023-04-03T10:02:38.998Z,3.27
2023-04-03T10:05:38.665Z,2.30
2023-04-03T10:08:14.021Z,1.47
2023-04-03T10:10:43.204Z,2.73
2023-04-03T10:13:20.643Z,1.00
2023-04-03T10:15:56.266Z,3.20
2023-04-03T10:18:39.819Z,5.93
2023-04-03T10:21:26.674Z,9.07
2023-04-03T10:24:03.856Z,2.13
2023-04-03T10:26:42.140Z,4.63
2023-04-03T10:29:23.518Z,1.30
2023-04-03T10:31:59.822Z,1.43
2023-04-03T10:34:33.999Z,4.00
2023-04-03T10:37:15.110Z,0.70
2023-04-03T10:39:53.084Z,0.83
2023-04-03T10:42:30.443Z,2.17
2023-04-03T10:45:21.776Z,2.13
2023-04-03T10:48:02.567Z,1.83
2023-04-03T10:50:40.203Z,3.63
2023-04-03T10:53:21.493Z,1.23
2023-04-03T10:55:56.575Z,4.67
2023-04-03T10:58:31.588Z,2.00
2023-04-03T11:01:05.169Z,5.20
2023-04-03T11:03:38.808Z,1.63
2023-04-03T11:06:12.425Z,2.17
2023-04-03T11:08:46.918Z,1.87
2023-04-03T11:11:19.416Z,3.23
2023-04-03T11:13:54.041Z,1.07
2023-04-03T11:16:26.566Z,0.60
2023-04-03T11:19:01.994Z,0.60
2023-04-03T11:21:35.851Z,1.90
2023-04-03T11:24:09.571Z,1.00
2023-04-03T11:26:42.737Z,2.20
2023-04-03T11:29:28.138Z,1.00
2023-04-03T11:32:14.893Z,4.17
2023-04-03T11:34:47.076Z,1.20
2023-04-03T11:37:24.105Z,2.10
2023-04-03T11:39:59.770Z,2.83
2023-04-03T11:42:34.637Z,1.60
2023-04-03T11:45:33.993Z,1.20
2023-04-03T11:48:20.980Z,1.50
2023-04-03T11:50:54.284Z,1.70
2023-04-03T11:53:32.767Z,3.47
2023-04-03T11:56:33.214Z,1.13
2023-04-03T11:59:28.573Z,0.60
2023-04-03T12:01:59.427Z,1.53
2023-04-03T12:04:30.198Z,2.33
2023-04-03T12:07:17.237Z,3.13
2023-04-03T12:10:31.131Z,1.23
2023-04-03T12:13:05.152Z,1.30
2023-04-03T12:15:54.863Z,3.63
2023-04-03T12:19:01.410Z,2.20
2023-04-03T12:22:24.382Z,0.70
2023-04-03T12:24:55.982Z,0.63
2023-04-03T12:27:31.425Z,1.87
2023-04-03T12:30:08.004Z,1.70
2023-04-03T12:32:56.277Z,0.50
2023-04-03T12:35:35.330Z,4.53
2023-04-03T12:38:40.234Z,3.17
2023-04-03T12:41:24.185Z,0.87
2023-04-03T12:44:11.388Z,1.40
2023-04-03T12:46:45.201Z,3.13
2023-04-03T12:49:29.118Z,2.07
2023-04-03T12:51:58.087Z,2.37
2023-04-03T12:54:32.780Z,2.77
2023-04-03T12:57:19.430Z,5.07
2023-04-03T12:59:48.369Z,4.53
2023-04-03T13:02:25.633Z,1.73
2023-04-03T13:04:56.101Z,1.20
2023-04-03T13:07:29.850Z,0.80
2023-04-03T13:10:01.953Z,1.10
2023-04-03T13:12:32.676Z,0.40
2023-04-03T13:15:05.402Z,5.30
2023-04-03T13:17:35.299Z,3.90
2023-04-03T13:20:16.419Z,4.93
2023-04-03T13:22:52.540Z,2.63
2023-04-03T13:25:24.493Z,3.77
2023-04-03T13:28:06.237Z,1.30
2023-04-03T13:30:42.798Z,5.93
2023-04-03T13:33:24.255Z,3.60
2023-04-03T13:35:59.137Z,2.40
2023-04-03T13:38:31.339Z,3.33
2023-04-03T13:41:03.790Z,3.37
2023-04-03T13:43:35.101Z,1.90
2023-04-03T13:46:07.558Z,2.77
2023-04-03T13:48:41.858Z,2.83
2023-04-03T13:51:22.086Z,2.17
2023-04-03T13:53:53.040Z,11.97
2023-04-03T13:56:29.498Z,4.43
2023-04-03T13:59:05.220Z,1.43
2023-04-03T14:01:46.810Z,2.93
2023-04-03T14:04:19.956Z,3.37
2023-04-03T14:06:49.702Z,4.57
2023-04-03T14:09:19.895Z,1.97
2023-04-03T14:11:49.932Z,1.50
2023-04-03T14:14:23.172Z,3.53
2023-04-03T14:16:55.350Z,1.30
2023-04-03T14:19:26.644Z,3.30
2023-04-03T14:21:57.911Z,1.60
2023-04-03T14:24:28.368Z,2.17
2023-04-03T14:26:57.615Z,2.50
2023-04-03T14:29:27.649Z,3.30
2023-04-03T14:32:11.652Z,2.67
2023-04-03T14:34:43.957Z,2.47
2023-04-03T14:37:15.812Z,5.87
2023-04-03T14:39:44.702Z,4.30
2023-04-03T14:42:16.468Z,4.37
2023-04-03T14:44:48.314Z,5.07
2023-04-03T14:47:30.513Z,3.83
2023-04-03T14:50:00.567Z,2.90
2023-04-03T14:52:31.402Z,4.27
2023-04-03T14:55:02.411Z,5.67
2023-04-03T14:57:32.064Z,2.20
2023-04-03T15:00:04.913Z,2.10
2023-04-03T15:02:35.413Z,1.80
2023-04-03T15:05:06.129Z,3.80
2023-04-03T15:07:37.302Z,4.83
2023-04-03T15:10:17.594Z,3.07
2023-04-03T15:12:48.051Z,2.30
2023-04-03T15:15:20.926Z,2.60
2023-04-03T15:17:54.841Z,3.30
2023-04-03T15:20:25.651Z,4.37
2023-04-03T15:22:54.292Z,2.03
2023-04-03T15:25:22.792Z,5.83
2023-04-03T15:27:51.457Z,4.50
2023-04-03T15:30:22.591Z,7.90
2023-04-03T15:32:51.873Z,3.37
2023-04-03T15:35:22.069Z,4.33
2023-04-03T15:37:52.256Z,4.27
2023-04-03T15:40:20.928Z,7.97
2023-04-03T15:42:50.290Z,2.00
2023-04-03T15:45:22.181Z,1.63
2023-04-03T15:47:50.858Z,1.70
2023-04-03T15:50:19.559Z,6.33
2023-04-03T15:52:48.097Z,3.00
2023-04-03T15:55:16.562Z,6.53
2023-04-03T15:57:45.090Z,3.53
2023-04-03T16:00:15.035Z,0.90
2023-04-03T16:02:46.135Z,4.30
2023-04-03T16:05:16.420Z,3.27
2023-04-03T16:07:45.700Z,9.30
2023-04-03T16:10:16.187Z,5.17
2023-04-03T16:12:44.685Z,3.33
2023-04-03T16:15:13.434Z,2.27
2023-04-03T16:17:43.089Z,2.63
2023-04-03T16:20:15.169Z,2.97
2023-04-03T16:22:44.948Z,5.60
2023-04-03T16:25:14.202Z,7.17
2023-04-03T16:27:42.895Z,1.30
2023-04-03T16:30:12.457Z,2.40
2023-04-03T16:32:41.840Z,2.20
2023-04-03T16:35:13.262Z,1.97
2023-04-03T16:37:42.290Z,1.77
2023-04-03T16:40:13.104Z,1.73
2023-04-03T16:42:41.861Z,1.10
2023-04-03T16:45:11.243Z,1.40
2023-04-03T16:47:40.139Z,1.50
2023-04-03T16:50:09.834Z,1.33
2023-04-03T16:52:40.034Z,1.40
2023-04-03T16:55:10.255Z,1.77
2023-04-03T16:57:38.825Z,1.50
2023-04-03T17:00:09.411Z,1.47
2023-04-03T17:02:38.833Z,1.40
2023-04-03T17:05:09.260Z,1.80
2023-04-03T17:07:39.273Z,1.70
2023-04-03T17:10:09.192Z,1.83
2023-04-03T17:12:37.585Z,1.27
2023-04-03T17:15:06.853Z,1.77
2023-04-03T17:17:35.752Z,2.10
2023-04-03T17:20:04.680Z,2.37
2023-04-03T17:22:33.659Z,1.80
2023-04-03T17:25:04.032Z,2.00
2023-04-03T17:27:32.583Z,3.90
2023-04-03T17:30:01.087Z,2.57
2023-04-03T17:32:30.466Z,2.47
2023-04-03T17:34:59.053Z,3.70
2023-04-03T17:37:27.596Z,3.07
2023-04-03T17:39:56.095Z,4.83
2023-04-03T17:42:26.077Z,4.00
2023-04-03T17:44:54.588Z,5.00
2023-04-03T17:47:23.079Z,3.77
2023-04-03T17:49:51.660Z,6.63
2023-04-03T17:52:20.159Z,4.90
2023-04-03T17:54:48.652Z,8.40
2023-04-03T17:57:17.113Z,5.60
2023-04-03T17:59:47.464Z,6.30
2023-04-03T18:02:16.802Z,9.07
2023-04-03T18:04:45.317Z,6.50
2023-04-03T18:07:14.032Z,7.20
2023-04-03T18:09:42.436Z,5.93
2023-04-03T18:12:11.583Z,5.83
2023-04-03T18:14:41.206Z,7.10
2023-04-03T18:17:11.623Z,6.37
2023-04-03T18:19:40.141Z,6.27
2023-04-03T18:22:13.422Z,8.13
2023-04-03T18:24:43.604Z,6.67
2023-04-03T18:27:15.026Z,5.80
2023-04-03T18:29:47.461Z,6.10
2023-04-03T18:32:19.821Z,5.73
2023-04-03T18:34:48.385Z,7.37
2023-04-03T18:37:17.484Z,14.50
2023-04-03T18:39:46.923Z,6.20
2023-04-03T18:42:17.909Z,6.77
2023-04-03T18:44:49.138Z,7.03
2023-04-03T18:47:19.327Z,6.07
2023-04-03T18:49:48.057Z,6.10
2023-04-03T18:52:16.871Z,7.23
2023-04-03T18:54:45.356Z,7.07
2023-04-03T18:57:13.881Z,7.57
2023-04-03T18:59:42.518Z,7.53
2023-04-03T19:02:12.677Z,6.20
2023-04-03T19:04:42.824Z,10.27
2023-04-03T19:07:12.047Z,8.17
2023-04-03T19:09:41.231Z,7.70
2023-04-03T19:12:09.967Z,7.70
2023-04-03T19:14:38.412Z,7.17
2023-04-03T19:17:08.312Z,7.57
2023-04-03T19:19:36.940Z,6.70
2023-04-03T19:22:07.893Z,5.80
2023-04-03T19:24:36.762Z,5.50
2023-04-03T19:27:05.411Z,7.10
2023-04-03T19:29:33.958Z,5.80
2023-04-03T19:32:02.473Z,4.77
2023-04-03T19:34:30.994Z,3.70
2023-04-03T19:36:59.624Z,3.63
2023-04-03T19:39:31.596Z,3.00
2023-04-03T19:42:00.352Z,3.33
2023-04-03T19:44:29.057Z,3.73
2023-04-03T19:46:57.788Z,4.10
2023-04-03T19:49:26.465Z,3.67
2023-04-03T19:51:55.053Z,2.57
2023-04-03T19:54:24.371Z,4.50
2023-04-03T19:56:54.346Z,6.77
2023-04-03T19:59:24.968Z,8.93
2023-04-03T20:01:53.784Z,7.03
2023-04-03T20:04:22.350Z,6.87
2023-04-03T20:06:50.982Z,7.77
2023-04-03T20:09:21.225Z,5.23
2023-04-03T20:11:50.942Z,4.73
2023-04-03T20:14:21.882Z,8.20
2023-04-03T20:16:50.495Z,6.13
2023-04-03T20:19:19.470Z,4.73
2023-04-03T20:21:48.029Z,4.73
2023-04-03T20:24:17.819Z,4.27
2023-04-03T20:26:47.295Z,4.70
2023-04-03T20:29:16.795Z,5.77
2023-04-03T20:31:46.933Z,4.17
2023-04-03T20:34:16.184Z,3.87
2023-04-03T20:36:48.015Z,3.63
2023-04-03T20:39:19.518Z,3.90
2023-04-03T20:41:48.078Z,6.60
2023-04-03T20:44:19.869Z,5.23
2023-04-03T20:46:53.543Z,19.13
2023-04-03T20:49:25.014Z,4.03
2023-04-03T20:51:53.960Z,4.40
2023-04-03T20:54:22.487Z,4.50
2023-04-03T20:56:51.440Z,5.67
2023-04-03T20:59:20.615Z,4.70
2023-04-03T21:01:50.633Z,5.63
2023-04-03T21:04:23.183Z,6.53
2023-04-03T21:07:29.206Z,5.37
2023-04-03T21:10:35.749Z,6.57
2023-04-03T21:13:41.551Z,5.37
2023-04-03T21:16:09.657Z,6.77
2023-04-03T21:19:03.752Z,5.30
2023-04-03T21:21:32.373Z,5.13
2023-04-03T21:24:02.188Z,5.20
2023-04-03T21:26:31.482Z,4.20
2023-04-03T21:28:59.976Z,4.53
2023-04-03T21:31:48.993Z,3.90
2023-04-03T21:34:20.993Z,6.83
2023-04-03T21:36:51.726Z,5.43
2023-04-03T21:39:20.338Z,5.07
2023-04-03T21:41:49.836Z,4.40
2023-04-03T21:44:18.523Z,5.30
2023-04-03T21:46:48.790Z,5.03
2023-04-03T21:49:18.662Z,3.40
2023-04-03T21:51:47.172Z,2.60
2023-04-03T21:54:15.832Z,3.43
2023-04-03T21:56:44.482Z,4.97
2023-04-03T21:59:13.269Z,4.87
2023-04-03T22:01:42.828Z,5.17
2023-04-03T22:04:11.608Z,3.87
2023-04-03T22:06:41.743Z,2.80
2023-04-03T22:09:10.262Z,6.03
2023-04-03T22:11:41.310Z,4.00
2023-04-03T22:14:09.754Z,2.20
2023-04-03T22:16:39.999Z,4.93
2023-04-03T22:19:09.332Z,6.43
2023-04-03T22:21:37.748Z,4.30
2023-04-03T22:24:08.287Z,1.70
2023-04-03T22:26:36.795Z,1.87
2023-04-03T22:29:06.079Z,1.67
2023-04-03T22:31:35.589Z,2.53
2023-04-03T22:34:05.071Z,1.87
2023-04-03T22:36:33.537Z,2.27
2023-04-03T22:39:03.234Z,1.80
2023-04-03T22:41:35.197Z,2.77
2023-04-03T22:44:03.581Z,1.20
2023-04-03T22:46:32.209Z,2.73
2023-04-03T22:49:00.693Z,3.37
2023-04-03T22:51:29.135Z,2.20
2023-04-03T22:53:57.527Z,1.37
2023-04-03T22:56:26.645Z,1.87
2023-04-03T22:58:57.256Z,2.03
2023-04-03T23:01:25.831Z,1.20
2023-04-03T23:03:54.459Z,2.80
2023-04-03T23:06:22.899Z,0.80
2023-04-03T23:08:51.405Z,1.60
2023-04-03T23:11:19.865Z,1.33
2023-04-03T23:13:48.302Z,1.00
2023-04-03T23:16:18.177Z,0.93
2023-04-03T23:18:46.581Z,1.40
2023-04-03T23:21:15.016Z,1.23
2023-04-03T23:23:43.464Z,0.80
2023-04-03T23:26:12.386Z,1.63
2023-04-03T23:28:41.885Z,1.10
2023-04-03T23:31:10.478Z,3.10
2023-04-03T23:33:44.026Z,1.47
2023-04-03T23:36:15.968Z,0.87
2023-04-03T23:38:44.723Z,1.23
2023-04-03T23:41:13.157Z,0.70
2023-04-03T23:43:42.441Z,0.50
2023-04-03T23:46:11.067Z,0.80
2023-04-03T23:48:40.986Z,0.97
2023-04-03T23:51:09.495Z,1.17
2023-04-03T23:53:37.997Z,0.60
2023-04-03T23:56:11.625Z,0.60
2023-04-03T23:58:41.021Z,0.97
